This is the latest recevied weather packets stored in our database for station/object N8VDS-10. If no packets are shown the sender has not sent any weather packets the latest 10 day(s).
| Time | Temp. | Humidity | Pressure | Rain* | Wind** | Luminosity | Snow |
|---|---|---|---|---|---|---|---|
| 1777490909 | 11.11° C | 69% | 1014.7 hPa | 0 mm | - | 60 W/m² | - |
| 1777490605 | 11.11° C | 68% | 1014.6 hPa | 0 mm | - | 65 W/m² | - |
| 1777490301 | 11.11° C | 69% | 1014.7 hPa | 0 mm | - | 60 W/m² | - |
| 1777489697 | 11.11° C | 68% | 1014.5 hPa | 0 mm | - | 62 W/m² | - |
| 1777489393 | 11.11° C | 67% | 1014.5 hPa | 0 mm | - | 79 W/m² | - |
| 1777489090 | 11.11° C | 66% | 1014.7 hPa | 0 mm | - | 97 W/m² | - |
| 1777488787 | 11.11° C | 67% | 1014.5 hPa | 0 mm | - | 112 W/m² | - |
| 1777487880 | 11.11° C | 67% | 1014.6 hPa | 0 mm | - | 219 W/m² | - |
| 1777487274 | 11.67° C | 67% | 1014.6 hPa | 0 mm | - | 210 W/m² | - |
| 1777486668 | 11.11° C | 70% | 1014.6 hPa | 0 mm | - | 192 W/m² | - |
| 1777486366 | 10.56° C | 70% | 1014.6 hPa | 0 mm | - | 182 W/m² | - |
| 1777485455 | 11.11° C | 70% | 1014.8 hPa | 0 mm | - | 319 W/m² | - |
| 1777484241 | 11.11° C | 70% | 1014.9 hPa | 0 mm | - | 231 W/m² | - |
| 1777483938 | 11.11° C | 70% | 1014.9 hPa | 0 mm | - | 895 W/m² | - |
| 1777483634 | 11.11° C | 71% | 1014.8 hPa | 0 mm | - | 502 W/m² | - |
| 1777482418 | 10.56° C | 73% | 1015.3 hPa | 0 mm | - | 536 W/m² | - |
| 1777482116 | 10.56° C | 74% | 1015.5 hPa | 0 mm | - | 728 W/m² | - |
| 1777481814 | 10° C | 75% | 1015.8 hPa | 0 mm | - | 494 W/m² | - |
| 1777480297 | 9.44° C | 76% | 1015.7 hPa | 0 mm | - | 274 W/m² | - |
| 1777479993 | 9.44° C | 77% | 1016 hPa | 0 mm | - | 325 W/m² | - |
| 1777477566 | 8.33° C | 83% | 1016.3 hPa | 0 mm | - | 272 W/m² | - |
| 1777476354 | 8.33° C | 83% | 1016 hPa | 0 mm | - | 291 W/m² | - |
| 1777473318 | 7.22° C | 85% | 1016.5 hPa | 0 mm | - | 112 W/m² | - |
| 1777473014 | 7.22° C | 85% | 1016.4 hPa | 0 mm | - | 102 W/m² | - |
| 1777471193 | 7.22° C | 86% | 1016.8 hPa | 0 mm | - | 111 W/m² | - |
* Rain latest hour (hover to see other rain measurements)
** Current wind speed in m/s (hover to see current wind gust speed)